createdAt,value
2019-04-23T00:01:23.244Z,47.20
2019-04-23T00:03:45.759Z,47.60
2019-04-23T00:06:21.773Z,47.60
2019-04-23T00:08:48.989Z,48.20
2019-04-23T00:11:21.840Z,48.50
2019-04-23T00:16:21.940Z,48.20
2019-04-23T00:24:23.758Z,47.40
2019-04-23T00:26:36.636Z,47.50
2019-04-23T00:29:08.682Z,48.90
2019-04-23T00:31:44.290Z,48.30
2019-04-23T00:34:01.080Z,48.80
2019-04-23T00:36:44.299Z,48.70
2019-04-23T00:39:18.785Z,49.40
2019-04-23T00:41:36.624Z,48.90
2019-04-23T00:51:32.050Z,48.40
2019-04-23T00:53:56.751Z,47.90
2019-04-23T00:56:40.261Z,47.70
2019-04-23T00:59:02.733Z,48.70
2019-04-23T01:01:41.291Z,49.10
2019-04-23T01:04:10.238Z,49.30
2019-04-23T01:06:29.118Z,48.70
2019-04-23T01:09:02.154Z,48.70
2019-04-23T01:14:01.109Z,48.50
2019-04-23T01:16:33.229Z,48.70
2019-04-23T01:19:24.423Z,49.00
2019-04-23T01:21:35.040Z,49.60
2019-04-23T01:24:17.733Z,49.70
2019-04-23T01:27:39.676Z,49.40
2019-04-23T01:30:05.082Z,49.80
2019-04-23T01:32:32.079Z,49.40
2019-04-23T01:35:09.688Z,49.60
2019-04-23T01:37:31.790Z,49.60
2019-04-23T01:39:57.684Z,49.60
2019-04-23T01:42:35.979Z,49.70
2019-04-23T01:45:11.648Z,49.60
2019-04-23T01:47:31.731Z,50.00
2019-04-23T01:50:08.276Z,49.60
2019-04-23T01:52:38.096Z,49.80
2019-04-23T01:55:10.006Z,50.10
2019-04-23T01:57:42.281Z,50.80
2019-04-23T02:00:11.642Z,51.10
2019-04-23T02:05:09.839Z,51.40
2019-04-23T02:07:45.650Z,51.80
2019-04-23T02:10:17.059Z,51.90
2019-04-23T02:12:43.394Z,53.30
2019-04-23T02:15:12.231Z,53.50
2019-04-23T02:17:36.249Z,53.70
2019-04-23T02:20:14.170Z,54.30
2019-04-23T02:22:51.863Z,56.00
2019-04-23T02:25:24.878Z,56.10
2019-04-23T02:27:58.225Z,56.90
2019-04-23T02:30:49.381Z,57.60
2019-04-23T02:32:59.386Z,58.00
2019-04-23T02:38:00.847Z,60.00
2019-04-23T02:40:26.667Z,60.60
2019-04-23T02:48:08.921Z,64.30
2019-04-23T02:52:56.184Z,64.50
2019-04-23T02:55:31.142Z,65.30
2019-04-23T02:57:50.353Z,65.50
2019-04-23T03:00:27.763Z,65.10
2019-04-23T03:02:59.123Z,66.40
2019-04-23T03:05:31.958Z,65.20
2019-04-23T03:07:54.256Z,66.40
2019-04-23T03:10:23.008Z,66.90
2019-04-23T03:13:07.408Z,67.40
2019-04-23T03:16:08.506Z,66.80
2019-04-23T03:18:35.305Z,68.40
2019-04-23T03:21:05.953Z,68.20
2019-04-23T03:26:25.201Z,68.70
2019-04-23T03:28:57.025Z,69.20
2019-04-23T03:38:51.928Z,70.50
2019-04-23T03:41:21.037Z,69.80
2019-04-23T03:43:41.188Z,70.90
2019-04-23T03:46:24.524Z,71.30
2019-04-23T03:48:47.208Z,71.50
2019-04-23T03:51:20.351Z,72.00
2019-04-23T03:56:24.159Z,72.30
2019-04-23T03:58:46.990Z,72.00
2019-04-23T04:01:22.799Z,70.00
2019-04-23T04:06:23.837Z,69.80
2019-04-23T04:08:58.535Z,70.30
2019-04-23T04:11:25.088Z,70.80
2019-04-23T04:16:21.846Z,67.50
2019-04-23T04:23:51.325Z,67.00
2019-04-23T04:26:22.687Z,66.40
2019-04-23T04:28:54.089Z,65.80
2019-04-23T04:31:26.174Z,66.90
2019-04-23T04:41:25.494Z,67.00
2019-04-23T04:44:05.465Z,65.60
2019-04-23T04:46:30.503Z,66.20
2019-04-23T04:51:27.110Z,65.50
2019-04-23T04:54:01.123Z,63.80
2019-04-23T04:56:40.480Z,63.20
2019-04-23T04:58:59.616Z,63.80
2019-04-23T05:03:43.259Z,63.30
2019-04-23T05:06:22.075Z,63.40
2019-04-23T05:08:58.416Z,63.80
2019-04-23T05:11:26.729Z,63.80
2019-04-23T05:13:55.355Z,63.50
2019-04-23T05:16:23.812Z,63.50
2019-04-23T05:19:08.565Z,63.50
2019-04-23T05:21:35.718Z,65.00
2019-04-23T05:24:00.877Z,64.50
2019-04-23T05:26:20.966Z,64.20
2019-04-23T05:33:59.900Z,65.20
2019-04-23T05:39:07.699Z,63.80
2019-04-23T05:44:05.125Z,63.30
2019-04-23T05:46:42.210Z,63.40
2019-04-23T05:49:02.755Z,63.70
2019-04-23T05:51:44.569Z,63.20
2019-04-23T05:53:58.267Z,64.30
2019-04-23T05:56:27.743Z,64.40
2019-04-23T05:58:58.079Z,63.60
2019-04-23T06:01:49.329Z,62.30
2019-04-23T06:06:37.547Z,63.30
2019-04-23T06:09:03.569Z,61.70
2019-04-23T06:11:39.569Z,63.20
2019-04-23T06:14:06.343Z,61.40
2019-04-23T06:16:35.627Z,61.20
2019-04-23T06:19:07.107Z,60.40
2019-04-23T06:21:52.914Z,60.80
2019-04-23T06:24:09.993Z,59.30
2019-04-23T06:26:40.070Z,59.00
2019-04-23T06:29:05.010Z,58.50
2019-04-23T06:31:41.493Z,58.90
2019-04-23T06:34:13.557Z,59.20
2019-04-23T06:36:34.339Z,58.60
2019-04-23T06:41:37.541Z,59.00
2019-04-23T06:44:14.499Z,58.70
2019-04-23T06:46:44.647Z,59.30
2019-04-23T06:49:11.158Z,58.70
2019-04-23T06:51:46.495Z,59.10
2019-04-23T06:54:12.279Z,58.60
2019-04-23T06:56:44.763Z,58.00
2019-04-23T06:59:12.034Z,57.80
2019-04-23T07:01:51.164Z,57.70
2019-04-23T07:04:15.151Z,57.70
2019-04-23T07:06:46.841Z,57.80
2019-04-23T07:11:40.219Z,57.60
2019-04-23T07:14:02.476Z,58.20
2019-04-23T07:16:38.465Z,58.00
2019-04-23T07:19:18.396Z,58.10
2019-04-23T07:21:41.832Z,58.90
2019-04-23T07:24:16.506Z,59.30
2019-04-23T07:29:18.936Z,57.70
2019-04-23T07:31:50.041Z,57.90
2019-04-23T07:34:15.662Z,58.30
2019-04-23T07:36:41.136Z,57.90
2019-04-23T07:39:23.347Z,58.40
2019-04-23T07:42:16.841Z,58.70
2019-04-23T07:47:51.966Z,57.60
2019-04-23T07:50:26.187Z,57.50
2019-04-23T07:52:57.600Z,57.90
2019-04-23T07:55:31.009Z,58.60
2019-04-23T07:57:57.037Z,57.70
2019-04-23T08:00:22.946Z,58.30
2019-04-23T08:02:43.521Z,57.70
2019-04-23T08:07:49.737Z,57.80
2019-04-23T08:10:16.751Z,58.10
2019-04-23T08:12:47.062Z,58.40
2019-04-23T08:15:23.019Z,58.70
2019-04-23T08:17:45.075Z,58.50
2019-04-23T08:20:23.056Z,57.80
2019-04-23T08:22:49.537Z,57.70
2019-04-23T08:25:19.334Z,57.70
2019-04-23T08:27:49.977Z,58.10
2019-04-23T08:30:19.675Z,58.10
2019-04-23T08:32:54.280Z,57.40
2019-04-23T08:35:19.956Z,56.90
2019-04-23T08:38:02.666Z,57.50
2019-04-23T08:42:58.169Z,57.60
2019-04-23T08:48:29.062Z,57.70
2019-04-23T08:55:53.725Z,57.20
2019-04-23T08:58:22.477Z,56.50
2019-04-23T09:00:55.322Z,57.60
2019-04-23T09:05:54.331Z,56.40
2019-04-23T09:08:21.828Z,58.00
2019-04-23T09:10:58.095Z,58.20
2019-04-23T09:15:51.105Z,55.80
2019-04-23T09:18:22.947Z,56.90
2019-04-23T09:20:41.434Z,56.10
2019-04-23T09:23:28.290Z,55.60
2019-04-23T09:28:27.538Z,56.00
2019-04-23T09:30:57.413Z,56.80
2019-04-23T09:33:36.231Z,55.50
2019-04-23T09:36:18.436Z,55.10
2019-04-23T09:38:46.766Z,56.30
2019-04-23T09:41:27.671Z,55.00
2019-04-23T09:44:14.497Z,54.50
2019-04-23T09:46:40.524Z,53.80
2019-04-23T09:51:35.834Z,52.30
2019-04-23T09:54:09.186Z,52.30
2019-04-23T09:59:15.693Z,52.70
2019-04-23T10:01:29.119Z,52.20
2019-04-23T10:03:57.053Z,51.50
2019-04-23T10:06:20.284Z,51.30
2019-04-23T10:08:49.049Z,51.40
2019-04-23T10:11:13.607Z,52.00
2019-04-23T10:13:42.805Z,51.70
2019-04-23T10:16:15.618Z,51.60
2019-04-23T10:18:41.718Z,50.70
2019-04-23T10:21:11.281Z,51.10
2019-04-23T10:23:41.247Z,52.00
2019-04-23T10:26:10.137Z,52.40
2019-04-23T10:28:47.666Z,52.30
2019-04-23T10:31:16.747Z,51.80
2019-04-23T10:33:46.158Z,52.20
2019-04-23T10:36:19.073Z,52.70
2019-04-23T10:38:54.319Z,53.00
2019-04-23T10:41:16.070Z,51.80
2019-04-23T10:43:48.803Z,52.50
2019-04-23T10:46:43.365Z,51.70
2019-04-23T10:54:28.666Z,51.80
2019-04-23T10:56:59.780Z,51.90
2019-04-23T11:02:29.212Z,52.00
2019-04-23T11:05:00.451Z,52.10
2019-04-23T11:07:27.183Z,50.90
2019-04-23T11:18:07.228Z,51.10
2019-04-23T11:20:27.404Z,51.70
2019-04-23T11:25:26.310Z,52.00
2019-04-23T11:27:53.902Z,52.70
2019-04-23T11:30:27.435Z,52.90
2019-04-23T11:32:54.291Z,53.30
2019-04-23T11:35:31.057Z,52.50
2019-04-23T11:40:23.242Z,52.70
2019-04-23T11:42:59.618Z,52.10
2019-04-23T11:45:50.676Z,53.60
2019-04-23T11:50:27.819Z,52.00
2019-04-23T11:53:01.077Z,52.20
2019-04-23T11:55:32.727Z,50.90
2019-04-23T11:58:02.732Z,51.90
2019-04-23T12:00:33.677Z,51.20
2019-04-23T12:02:51.154Z,51.00
2019-04-23T12:05:41.452Z,51.10
2019-04-23T12:07:57.663Z,50.80
2019-04-23T12:10:43.711Z,50.80
2019-04-23T12:13:10.540Z,50.20
2019-04-23T12:15:32.132Z,49.70
2019-04-23T12:18:05.469Z,50.40
2019-04-23T12:23:18.174Z,49.80
2019-04-23T12:25:31.246Z,50.80
2019-04-23T12:27:50.458Z,51.00
2019-04-23T12:35:36.876Z,49.60
2019-04-23T12:45:35.524Z,49.60
2019-04-23T12:50:50.077Z,51.20
2019-04-23T12:53:23.682Z,50.30
2019-04-23T12:58:15.700Z,50.70
2019-04-23T13:00:38.963Z,49.20
2019-04-23T13:03:16.927Z,47.80
2019-04-23T13:05:53.046Z,49.20
2019-04-23T13:10:47.967Z,50.10
2019-04-23T13:16:02.845Z,45.10
2019-04-23T13:18:19.601Z,45.20
2019-04-23T13:25:57.046Z,45.10
2019-04-23T13:28:35.490Z,45.40
2019-04-23T13:31:08.397Z,42.50
2019-04-23T13:33:42.106Z,42.20
2019-04-23T13:38:38.277Z,43.60
2019-04-23T13:41:09.085Z,43.10
2019-04-23T13:48:27.645Z,40.60
2019-04-23T13:51:07.243Z,39.90
2019-04-23T13:53:39.410Z,39.20
2019-04-23T13:56:15.330Z,41.00
2019-04-23T13:58:34.450Z,38.90
2019-04-23T14:03:40.836Z,39.10
2019-04-23T14:06:18.147Z,39.00
2019-04-23T14:08:47.008Z,39.20
2019-04-23T14:16:22.763Z,39.40
2019-04-23T14:18:58.000Z,37.80
2019-04-23T14:31:17.227Z,35.60
2019-04-23T14:33:58.408Z,35.80
2019-04-23T14:36:19.372Z,36.00
2019-04-23T14:38:49.222Z,36.60
2019-04-23T14:41:23.536Z,35.80
2019-04-23T14:43:56.070Z,35.70
2019-04-23T14:48:56.968Z,36.30
2019-04-23T14:51:32.090Z,36.30
2019-04-23T14:54:03.463Z,35.90
2019-04-23T14:56:29.824Z,35.80
2019-04-23T14:59:07.198Z,35.90
2019-04-23T15:06:41.131Z,33.90
2019-04-23T15:09:07.429Z,34.40
2019-04-23T15:13:53.846Z,32.70
2019-04-23T15:16:33.412Z,33.70
2019-04-23T15:24:06.971Z,34.50
2019-04-23T15:27:23.027Z,34.50
2019-04-23T15:28:43.729Z,35.20
2019-04-23T15:31:33.080Z,36.00
2019-04-23T15:39:11.610Z,35.60
2019-04-23T15:41:45.096Z,34.50
2019-04-23T15:46:40.976Z,34.50
2019-04-23T15:51:35.799Z,34.60
2019-04-23T15:54:14.098Z,33.60
2019-04-23T15:56:41.460Z,33.60
2019-04-23T16:01:34.060Z,33.90
2019-04-23T16:03:39.634Z,34.50
2019-04-23T16:06:10.692Z,34.40
2019-04-23T16:16:47.769Z,34.80
2019-04-23T16:19:13.698Z,35.10
2019-04-23T16:22:01.931Z,34.80
2019-04-23T16:24:17.625Z,34.40
2019-04-23T16:26:51.027Z,34.10
2019-04-23T16:29:32.887Z,34.40
2019-04-23T16:31:50.854Z,35.10
2019-04-23T16:34:23.899Z,35.30
2019-04-23T16:36:54.661Z,35.80
2019-04-23T16:39:16.908Z,35.50
2019-04-23T16:46:56.288Z,36.00
2019-04-23T16:51:48.876Z,36.80
2019-04-23T16:54:26.747Z,37.00
2019-04-23T17:02:03.551Z,38.10
2019-04-23T17:04:27.628Z,39.20
2019-04-23T17:06:53.417Z,39.00
2019-04-23T17:09:34.123Z,39.80
2019-04-23T17:12:03.079Z,39.70
2019-04-23T17:14:23.204Z,39.60
2019-04-23T17:16:49.618Z,39.10
2019-04-23T17:19:29.422Z,39.80
2019-04-23T17:21:59.815Z,40.80
2019-04-23T17:24:23.314Z,40.10
2019-04-23T17:26:57.389Z,40.60
2019-04-23T17:31:49.092Z,40.90
2019-04-23T17:34:32.183Z,40.80
2019-04-23T17:37:13.131Z,40.30
2019-04-23T17:39:55.027Z,41.10
2019-04-23T17:42:30.664Z,41.40
2019-04-23T17:47:37.270Z,41.90
2019-04-23T17:50:05.617Z,42.20
2019-04-23T17:52:34.942Z,42.70
2019-04-23T17:55:10.209Z,44.20
2019-04-23T17:57:39.380Z,45.00
2019-04-23T18:00:17.957Z,45.40
2019-04-23T18:05:09.836Z,51.80
2019-04-23T18:07:44.867Z,53.50
2019-04-23T18:15:04.903Z,56.50
2019-04-23T18:20:12.436Z,59.10
2019-04-23T18:23:00.323Z,60.20
2019-04-23T18:30:17.751Z,62.50
2019-04-23T18:33:44.660Z,63.60
2019-04-23T18:40:57.795Z,65.10
2019-04-23T18:43:13.768Z,65.60
2019-04-23T18:45:46.681Z,67.40
2019-04-23T18:51:03.477Z,68.50
2019-04-23T18:56:06.896Z,70.60
2019-04-23T18:58:47.169Z,69.60
2019-04-23T19:01:20.009Z,70.50
2019-04-23T19:09:22.452Z,70.60
2019-04-23T19:11:58.215Z,71.10
2019-04-23T19:14:35.896Z,72.50
2019-04-23T19:17:09.074Z,73.70
2019-04-23T19:19:29.664Z,74.90
2019-04-23T19:24:28.545Z,74.00
2019-04-23T19:29:30.662Z,75.50
2019-04-23T19:31:56.762Z,76.20
2019-04-23T19:34:35.606Z,77.10
2019-04-23T19:37:01.326Z,77.80
2019-04-23T19:39:33.782Z,78.20
2019-04-23T19:47:23.345Z,78.70
2019-04-23T19:49:32.739Z,78.80
2019-04-23T19:51:59.561Z,78.90
2019-04-23T19:57:19.662Z,79.60
2019-04-23T20:02:09.621Z,80.20
2019-04-23T20:04:42.821Z,80.30
2019-04-23T20:07:22.479Z,80.50
2019-04-23T20:10:03.523Z,81.10
2019-04-23T20:12:05.908Z,81.40
2019-04-23T20:14:44.342Z,81.70
2019-04-23T20:19:44.817Z,81.40
2019-04-23T20:29:50.984Z,83.50
2019-04-23T20:32:07.168Z,83.00
2019-04-23T20:35:00.250Z,84.40
2019-04-23T20:37:47.351Z,84.90
2019-04-23T20:42:40.495Z,85.20
2019-04-23T20:44:58.961Z,85.20
2019-04-23T20:47:22.793Z,85.10
2019-04-23T20:49:48.005Z,85.10
2019-04-23T20:52:20.440Z,85.30
2019-04-23T21:00:01.888Z,86.30
2019-04-23T21:15:37.415Z,87.80
2019-04-23T21:18:09.546Z,87.90
2019-04-23T21:20:30.079Z,88.10
2019-04-23T21:22:58.967Z,88.10
2019-04-23T21:25:25.471Z,87.70
2019-04-23T21:33:11.847Z,87.10
2019-04-23T21:36:02.885Z,87.00
2019-04-23T21:38:39.842Z,88.50
2019-04-23T21:41:11.128Z,89.70
2019-04-23T21:43:58.355Z,90.30
2019-04-23T21:46:15.240Z,90.50
2019-04-23T21:48:55.847Z,90.20
2019-04-23T21:51:09.500Z,90.00
2019-04-23T21:53:42.269Z,90.20
2019-04-23T21:56:09.054Z,90.50
2019-04-23T21:58:49.177Z,90.70
2019-04-23T22:01:23.735Z,90.80
2019-04-23T22:04:06.561Z,91.10
2019-04-23T22:06:25.539Z,91.60
2019-04-23T22:08:56.342Z,91.80
2019-04-23T22:11:49.537Z,92.00
2019-04-23T22:13:57.927Z,92.10
2019-04-23T22:19:56.953Z,91.50
2019-04-23T22:21:25.925Z,91.50
2019-04-23T22:23:58.286Z,92.00
2019-04-23T22:26:25.530Z,92.00
2019-04-23T22:29:00.892Z,92.20
2019-04-23T22:31:23.407Z,92.70
2019-04-23T22:33:53.335Z,92.80
2019-04-23T22:36:14.660Z,92.80
2019-04-23T22:38:49.202Z,92.90
2019-04-23T22:41:18.621Z,92.90
2019-04-23T22:44:05.207Z,93.00
2019-04-23T22:46:22.984Z,93.10
2019-04-23T22:49:14.333Z,93.10
2019-04-23T22:51:41.559Z,93.10
2019-04-23T22:56:35.121Z,93.20
2019-04-23T22:59:21.268Z,93.50
2019-04-23T23:01:50.465Z,93.50
2019-04-23T23:06:49.404Z,93.50
2019-04-23T23:09:23.202Z,93.50
2019-04-23T23:11:43.922Z,93.60
2019-04-23T23:14:16.968Z,93.50
2019-04-23T23:16:39.198Z,93.30
2019-04-23T23:19:16.900Z,93.50
2019-04-23T23:21:51.649Z,93.40
2019-04-23T23:24:07.471Z,93.30
2019-04-23T23:26:42.181Z,93.20
2019-04-23T23:29:05.806Z,93.50
2019-04-23T23:31:43.672Z,93.40
2019-04-23T23:34:06.809Z,93.50
2019-04-23T23:36:47.389Z,93.70
2019-04-23T23:39:18.106Z,93.80
2019-04-23T23:41:42.026Z,93.70
2019-04-23T23:44:28.486Z,93.90
2019-04-23T23:46:54.118Z,93.90
2019-04-23T23:49:13.893Z,93.90
2019-04-23T23:54:18.194Z,93.80
2019-04-23T23:56:39.275Z,93.70
2019-04-23T23:59:12.471Z,93.70
